sensor_id;sensor_type;location;lat;lon;timestamp;pressure;altitude;pressure_sealevel;temperature;humidity
20009;BME280;10165;42.662;23.260;2023-03-13T00:01:49;94342.19;;;4.67;46.62
20009;BME280;10165;42.662;23.260;2023-03-13T00:04:16;94332.50;;;5.15;45.83
20009;BME280;10165;42.662;23.260;2023-03-13T00:06:43;94339.13;;;5.04;45.40
20009;BME280;10165;42.662;23.260;2023-03-13T00:09:11;94335.09;;;5.07;44.80
20009;BME280;10165;42.662;23.260;2023-03-13T00:11:39;94338.56;;;4.85;46.41
20009;BME280;10165;42.662;23.260;2023-03-13T00:14:06;94341.97;;;4.41;46.93
20009;BME280;10165;42.662;23.260;2023-03-13T00:16:33;94341.81;;;3.88;47.88
20009;BME280;10165;42.662;23.260;2023-03-13T00:19:01;94342.19;;;3.95;47.67
20009;BME280;10165;42.662;23.260;2023-03-13T00:21:29;94353.69;;;4.49;45.76
20009;BME280;10165;42.662;23.260;2023-03-13T00:23:58;94345.75;;;4.26;45.94
20009;BME280;10165;42.662;23.260;2023-03-13T00:26:26;94346.13;;;5.00;45.13
20009;BME280;10165;42.662;23.260;2023-03-13T00:28:53;94353.72;;;4.93;44.01
20009;BME280;10165;42.662;23.260;2023-03-13T00:31:25;94350.16;;;4.53;45.79
20009;BME280;10165;42.662;23.260;2023-03-13T00:34:00;94353.81;;;4.08;46.79
20009;BME280;10165;42.662;23.260;2023-03-13T00:36:30;94347.41;;;4.36;46.51
20009;BME280;10165;42.662;23.260;2023-03-13T00:38:58;94348.19;;;4.59;46.06
20009;BME280;10165;42.662;23.260;2023-03-13T00:41:30;94357.16;;;4.00;46.56
20009;BME280;10165;42.662;23.260;2023-03-13T00:43:57;94354.03;;;4.33;47.55
20009;BME280;10165;42.662;23.260;2023-03-13T00:46:26;94360.53;;;4.63;46.18
20009;BME280;10165;42.662;23.260;2023-03-13T00:48:53;94350.84;;;4.37;46.94
20009;BME280;10165;42.662;23.260;2023-03-13T00:51:21;94354.53;;;4.36;47.05
20009;BME280;10165;42.662;23.260;2023-03-13T00:53:49;94348.13;;;4.14;46.72
20009;BME280;10165;42.662;23.260;2023-03-13T00:56:17;94353.81;;;4.21;47.22
20009;BME280;10165;42.662;23.260;2023-03-13T00:58:45;94353.13;;;4.52;46.92
20009;BME280;10165;42.662;23.260;2023-03-13T01:01:18;94345.13;;;4.07;46.17
20009;BME280;10165;42.662;23.260;2023-03-13T01:03:48;94345.53;;;4.37;46.25
20009;BME280;10165;42.662;23.260;2023-03-13T01:06:17;94340.84;;;4.78;45.56
20009;BME280;10165;42.662;23.260;2023-03-13T01:08:44;94349.97;;;4.72;44.80
20009;BME280;10165;42.662;23.260;2023-03-13T01:11:16;94340.69;;;4.16;46.71
20009;BME280;10165;42.662;23.260;2023-03-13T01:13:43;94337.38;;;4.11;46.91
20009;BME280;10165;42.662;23.260;2023-03-13T01:16:16;94335.63;;;3.29;49.96
20009;BME280;10165;42.662;23.260;2023-03-13T01:18:46;94337.22;;;4.29;48.06
20009;BME280;10165;42.662;23.260;2023-03-13T01:21:14;94331.94;;;4.29;46.09
20009;BME280;10165;42.662;23.260;2023-03-13T01:23:41;94343.25;;;4.21;46.80
20009;BME280;10165;42.662;23.260;2023-03-13T01:26:08;94346.81;;;3.90;47.52
20009;BME280;10165;42.662;23.260;2023-03-13T01:28:35;94349.00;;;4.23;46.90
20009;BME280;10165;42.662;23.260;2023-03-13T01:31:19;94351.22;;;3.94;47.14
20009;BME280;10165;42.662;23.260;2023-03-13T01:33:48;94357.00;;;3.82;47.61
20009;BME280;10165;42.662;23.260;2023-03-13T01:36:16;94359.84;;;3.72;49.00
20009;BME280;10165;42.662;23.260;2023-03-13T01:38:43;94358.50;;;4.11;47.98
20009;BME280;10165;42.662;23.260;2023-03-13T01:41:12;94363.00;;;4.10;47.33
20009;BME280;10165;42.662;23.260;2023-03-13T01:43:39;94362.56;;;4.44;46.84
20009;BME280;10165;42.662;23.260;2023-03-13T01:54:22;94354.50;;;4.49;46.33
20009;BME280;10165;42.662;23.260;2023-03-13T01:59:32;94357.69;;;4.82;46.06
20009;BME280;10165;42.662;23.260;2023-03-13T02:02:02;94361.41;;;3.87;47.88
20009;BME280;10165;42.662;23.260;2023-03-13T02:04:34;94360.53;;;3.78;48.74
20009;BME280;10165;42.662;23.260;2023-03-13T02:07:06;94351.34;;;4.25;47.87
20009;BME280;10165;42.662;23.260;2023-03-13T02:09:37;94353.50;;;4.59;47.30
20009;BME280;10165;42.662;23.260;2023-03-13T02:12:09;94355.81;;;4.60;46.16
20009;BME280;10165;42.662;23.260;2023-03-13T02:14:38;94359.75;;;4.27;46.76
20009;BME280;10165;42.662;23.260;2023-03-13T02:17:06;94370.19;;;3.96;47.58
20009;BME280;10165;42.662;23.260;2023-03-13T02:19:47;94377.34;;;3.96;47.89
20009;BME280;10165;42.662;23.260;2023-03-13T02:27:13;94382.16;;;4.29;47.58
20009;BME280;10165;42.662;23.260;2023-03-13T02:29:40;94387.31;;;3.99;48.50
20009;BME280;10165;42.662;23.260;2023-03-13T02:32:07;94386.97;;;4.27;48.03
20009;BME280;10165;42.662;23.260;2023-03-13T02:34:37;94394.75;;;4.46;48.08
20009;BME280;10165;42.662;23.260;2023-03-13T02:37:06;94399.06;;;4.56;47.04
20009;BME280;10165;42.662;23.260;2023-03-13T02:39:38;94406.56;;;4.62;47.40
20009;BME280;10165;42.662;23.260;2023-03-13T02:42:07;94404.91;;;4.66;47.28
20009;BME280;10165;42.662;23.260;2023-03-13T02:44:39;94406.91;;;4.47;46.63
20009;BME280;10165;42.662;23.260;2023-03-13T02:47:06;94420.69;;;4.08;47.94
20009;BME280;10165;42.662;23.260;2023-03-13T02:49:35;94420.28;;;4.15;47.66
20009;BME280;10165;42.662;23.260;2023-03-13T02:52:18;94423.72;;;4.29;47.64
20009;BME280;10165;42.662;23.260;2023-03-13T02:54:48;94423.13;;;4.05;48.19
20009;BME280;10165;42.662;23.260;2023-03-13T02:57:16;94424.53;;;4.02;48.21
20009;BME280;10165;42.662;23.260;2023-03-13T02:59:43;94430.44;;;3.40;49.42
20009;BME280;10165;42.662;23.260;2023-03-13T03:02:09;94425.59;;;3.88;49.37
20009;BME280;10165;42.662;23.260;2023-03-13T03:04:36;94415.41;;;3.81;49.36
20009;BME280;10165;42.662;23.260;2023-03-13T03:07:03;94418.78;;;3.27;50.38
20009;BME280;10165;42.662;23.260;2023-03-13T03:09:29;94416.78;;;3.05;50.93
20009;BME280;10165;42.662;23.260;2023-03-13T03:11:56;94413.53;;;3.41;49.44
20009;BME280;10165;42.662;23.260;2023-03-13T03:14:23;94424.91;;;3.68;48.85
20009;BME280;10165;42.662;23.260;2023-03-13T03:16:49;94432.69;;;3.46;49.40
20009;BME280;10165;42.662;23.260;2023-03-13T03:19:16;94442.84;;;2.93;51.13
20009;BME280;10165;42.662;23.260;2023-03-13T03:21:43;94450.00;;;3.38;51.04
20009;BME280;10165;42.662;23.260;2023-03-13T03:24:09;94453.66;;;3.70;49.94
20009;BME280;10165;42.662;23.260;2023-03-13T03:26:36;94458.72;;;3.53;49.37
20009;BME280;10165;42.662;23.260;2023-03-13T03:29:03;94463.75;;;3.22;50.58
20009;BME280;10165;42.662;23.260;2023-03-13T03:31:30;94464.81;;;3.67;49.76
20009;BME280;10165;42.662;23.260;2023-03-13T03:33:57;94469.63;;;3.92;48.86
20009;BME280;10165;42.662;23.260;2023-03-13T03:36:23;94453.69;;;3.97;48.42
20009;BME280;10165;42.662;23.260;2023-03-13T03:38:51;94463.28;;;4.20;48.04
20009;BME280;10165;42.662;23.260;2023-03-13T03:41:18;94464.44;;;4.14;48.49
20009;BME280;10165;42.662;23.260;2023-03-13T03:43:45;94474.44;;;4.17;48.42
20009;BME280;10165;42.662;23.260;2023-03-13T03:46:13;94487.22;;;3.56;48.37
20009;BME280;10165;42.662;23.260;2023-03-13T03:48:41;94493.44;;;3.14;50.42
20009;BME280;10165;42.662;23.260;2023-03-13T03:51:08;94489.69;;;2.64;52.97
20009;BME280;10165;42.662;23.260;2023-03-13T03:53:34;94487.59;;;3.17;51.62
20009;BME280;10165;42.662;23.260;2023-03-13T03:56:01;94487.41;;;3.27;50.49
20009;BME280;10165;42.662;23.260;2023-03-13T03:58:28;94481.59;;;3.44;50.93
20009;BME280;10165;42.662;23.260;2023-03-13T04:00:57;94496.72;;;3.70;48.93
20009;BME280;10165;42.662;23.260;2023-03-13T04:03:24;94501.16;;;3.43;49.70
20009;BME280;10165;42.662;23.260;2023-03-13T04:05:51;94496.53;;;3.67;49.76
20009;BME280;10165;42.662;23.260;2023-03-13T04:08:18;94506.56;;;3.65;49.49
20009;BME280;10165;42.662;23.260;2023-03-13T04:10:45;94512.69;;;3.47;49.97
20009;BME280;10165;42.662;23.260;2023-03-13T04:13:12;94517.56;;;3.40;50.07
20009;BME280;10165;42.662;23.260;2023-03-13T04:15:39;94518.78;;;3.61;49.99
20009;BME280;10165;42.662;23.260;2023-03-13T04:18:07;94518.25;;;3.64;50.12
20009;BME280;10165;42.662;23.260;2023-03-13T04:20:34;94523.31;;;3.60;50.14
20009;BME280;10165;42.662;23.260;2023-03-13T04:23:01;94527.88;;;3.55;50.18
20009;BME280;10165;42.662;23.260;2023-03-13T04:25:27;94527.69;;;3.65;50.20
20009;BME280;10165;42.662;23.260;2023-03-13T04:27:54;94537.44;;;3.83;49.68
20009;BME280;10165;42.662;23.260;2023-03-13T04:30:21;94535.09;;;3.81;49.54
20009;BME280;10165;42.662;23.260;2023-03-13T04:32:48;94539.31;;;3.50;50.44
20009;BME280;10165;42.662;23.260;2023-03-13T04:35:16;94550.34;;;3.01;51.80
20009;BME280;10165;42.662;23.260;2023-03-13T04:37:44;94556.00;;;3.13;51.98
20009;BME280;10165;42.662;23.260;2023-03-13T04:40:11;94562.81;;;3.14;52.33
20009;BME280;10165;42.662;23.260;2023-03-13T04:42:40;94574.31;;;2.86;52.86
20009;BME280;10165;42.662;23.260;2023-03-13T04:45:10;94575.31;;;2.90;53.20
20009;BME280;10165;42.662;23.260;2023-03-13T04:47:37;94574.75;;;3.12;53.35
20009;BME280;10165;42.662;23.260;2023-03-13T04:50:04;94578.66;;;3.33;52.87
20009;BME280;10165;42.662;23.260;2023-03-13T04:52:31;94569.88;;;3.70;52.05
20009;BME280;10165;42.662;23.260;2023-03-13T04:54:58;94575.50;;;3.82;51.18
20009;BME280;10165;42.662;23.260;2023-03-13T04:57:24;94570.91;;;3.88;51.39
20009;BME280;10165;42.662;23.260;2023-03-13T04:59:51;94578.59;;;3.70;51.75
20009;BME280;10165;42.662;23.260;2023-03-13T05:02:17;94583.72;;;3.11;52.35
20009;BME280;10165;42.662;23.260;2023-03-13T05:04:44;94575.59;;;2.46;53.87
20009;BME280;10165;42.662;23.260;2023-03-13T05:07:11;94583.66;;;2.07;55.31
20009;BME280;10165;42.662;23.260;2023-03-13T05:09:37;94571.56;;;1.77;56.72
20009;BME280;10165;42.662;23.260;2023-03-13T05:12:04;94574.78;;;2.03;55.86
20009;BME280;10165;42.662;23.260;2023-03-13T05:14:31;94586.44;;;2.21;55.52
20009;BME280;10165;42.662;23.260;2023-03-13T05:16:58;94584.50;;;2.74;54.78
20009;BME280;10165;42.662;23.260;2023-03-13T05:19:24;94587.97;;;2.69;53.87
20009;BME280;10165;42.662;23.260;2023-03-13T05:21:51;94591.94;;;3.09;53.67
20009;BME280;10165;42.662;23.260;2023-03-13T05:24:17;94594.84;;;2.89;52.96
20009;BME280;10165;42.662;23.260;2023-03-13T05:26:44;94600.75;;;2.81;53.24
20009;BME280;10165;42.662;23.260;2023-03-13T05:29:11;94602.34;;;3.01;53.25
20009;BME280;10165;42.662;23.260;2023-03-13T05:31:37;94604.75;;;3.53;52.27
20009;BME280;10165;42.662;23.260;2023-03-13T05:34:04;94605.97;;;3.42;52.11
20009;BME280;10165;42.662;23.260;2023-03-13T05:36:30;94602.38;;;3.70;51.99
20009;BME280;10165;42.662;23.260;2023-03-13T05:38:57;94605.16;;;3.79;51.13
20009;BME280;10165;42.662;23.260;2023-03-13T05:41:24;94606.94;;;3.97;51.21
20009;BME280;10165;42.662;23.260;2023-03-13T05:43:50;94608.94;;;4.05;51.05
20009;BME280;10165;42.662;23.260;2023-03-13T05:46:17;94607.66;;;3.70;50.15
20009;BME280;10165;42.662;23.260;2023-03-13T05:48:44;94614.16;;;3.92;49.90
20009;BME280;10165;42.662;23.260;2023-03-13T05:51:12;94615.56;;;4.03;50.44
20009;BME280;10165;42.662;23.260;2023-03-13T05:53:38;94617.19;;;3.85;49.99
20009;BME280;10165;42.662;23.260;2023-03-13T05:56:05;94623.84;;;4.28;49.45
20009;BME280;10165;42.662;23.260;2023-03-13T05:58:32;94619.03;;;4.30;49.26
20009;BME280;10165;42.662;23.260;2023-03-13T06:00:59;94626.22;;;4.57;49.23
20009;BME280;10165;42.662;23.260;2023-03-13T06:03:30;94634.19;;;4.71;48.89
20009;BME280;10165;42.662;23.260;2023-03-13T06:05:57;94631.31;;;4.40;49.11
20009;BME280;10165;42.662;23.260;2023-03-13T06:08:24;94631.41;;;4.76;48.92
20009;BME280;10165;42.662;23.260;2023-03-13T06:10:51;94639.72;;;4.42;47.79
20009;BME280;10165;42.662;23.260;2023-03-13T06:13:18;94632.19;;;4.76;47.57
20009;BME280;10165;42.662;23.260;2023-03-13T06:15:56;94622.69;;;4.62;47.65
20009;BME280;10165;42.662;23.260;2023-03-13T06:18:24;94624.06;;;4.73;48.57
20009;BME280;10165;42.662;23.260;2023-03-13T06:20:58;94633.19;;;4.80;46.85
20009;BME280;10165;42.662;23.260;2023-03-13T06:23:25;94628.00;;;4.48;46.92
20009;BME280;10165;42.662;23.260;2023-03-13T06:25:52;94629.16;;;4.69;46.85
20009;BME280;10165;42.662;23.260;2023-03-13T06:28:19;94633.88;;;4.86;46.32
20009;BME280;10165;42.662;23.260;2023-03-13T06:30:46;94622.69;;;4.62;46.09
20009;BME280;10165;42.662;23.260;2023-03-13T06:33:13;94632.22;;;4.63;46.30
20009;BME280;10165;42.662;23.260;2023-03-13T06:35:41;94619.16;;;4.80;46.20
20009;BME280;10165;42.662;23.260;2023-03-13T06:38:23;94601.81;;;4.60;46.92
20009;BME280;10165;42.662;23.260;2023-03-13T06:40:50;94602.50;;;4.79;45.86
20009;BME280;10165;42.662;23.260;2023-03-13T06:43:17;94607.00;;;4.93;46.06
20009;BME280;10165;42.662;23.260;2023-03-13T06:45:45;94622.88;;;4.93;46.06
20009;BME280;10165;42.662;23.260;2023-03-13T06:48:11;94621.09;;;4.33;47.73
20009;BME280;10165;42.662;23.260;2023-03-13T06:50:38;94620.34;;;4.74;46.73
20009;BME280;10165;42.662;23.260;2023-03-13T06:53:05;94624.88;;;4.60;46.30
20009;BME280;10165;42.662;23.260;2023-03-13T06:55:31;94615.03;;;5.01;46.09
20009;BME280;10165;42.662;23.260;2023-03-13T06:57:58;94619.34;;;4.29;48.01
20009;BME280;10165;42.662;23.260;2023-03-13T07:00:25;94620.44;;;4.69;47.11
20009;BME280;10165;42.662;23.260;2023-03-13T07:02:52;94614.25;;;4.87;46.76
20009;BME280;10165;42.662;23.260;2023-03-13T07:05:19;94615.94;;;4.97;46.37
20009;BME280;10165;42.662;23.260;2023-03-13T07:07:46;94618.38;;;4.79;46.75
20009;BME280;10165;42.662;23.260;2023-03-13T07:10:12;94618.00;;;4.72;47.14
20009;BME280;10165;42.662;23.260;2023-03-13T07:12:39;94615.63;;;4.85;46.86
20009;BME280;10165;42.662;23.260;2023-03-13T07:15:06;94622.16;;;5.28;46.21
20009;BME280;10165;42.662;23.260;2023-03-13T07:17:33;94621.03;;;5.43;45.40
20009;BME280;10165;42.662;23.260;2023-03-13T07:20:00;94614.69;;;5.30;45.28
20009;BME280;10165;42.662;23.260;2023-03-13T07:22:27;94610.56;;;5.60;45.52
20009;BME280;10165;42.662;23.260;2023-03-13T07:24:54;94615.72;;;4.79;47.58
20009;BME280;10165;42.662;23.260;2023-03-13T07:27:21;94610.41;;;5.20;46.08
20009;BME280;10165;42.662;23.260;2023-03-13T07:29:48;94614.50;;;5.26;45.29
20009;BME280;10165;42.662;23.260;2023-03-13T07:32:16;94610.06;;;5.36;45.06
20009;BME280;10165;42.662;23.260;2023-03-13T07:34:42;94606.78;;;5.03;45.34
20009;BME280;10165;42.662;23.260;2023-03-13T07:37:13;94612.84;;;5.89;43.93
20009;BME280;10165;42.662;23.260;2023-03-13T07:39:41;94614.59;;;5.21;44.93
20009;BME280;10165;42.662;23.260;2023-03-13T07:42:11;94619.44;;;5.55;43.86
20009;BME280;10165;42.662;23.260;2023-03-13T07:44:38;94613.41;;;4.78;45.51
20009;BME280;10165;42.662;23.260;2023-03-13T07:47:05;94611.06;;;5.26;44.63
20009;BME280;10165;42.662;23.260;2023-03-13T07:49:32;94620.50;;;5.18;44.41
20009;BME280;10165;42.662;23.260;2023-03-13T07:52:00;94607.75;;;5.20;44.79
20009;BME280;10165;42.662;23.260;2023-03-13T07:54:27;94615.84;;;5.02;45.10
20009;BME280;10165;42.662;23.260;2023-03-13T07:56:54;94608.59;;;4.66;45.40
20009;BME280;10165;42.662;23.260;2023-03-13T07:59:20;94604.47;;;4.74;45.44
20009;BME280;10165;42.662;23.260;2023-03-13T08:01:48;94600.78;;;5.11;45.11
20009;BME280;10165;42.662;23.260;2023-03-13T08:04:14;94602.50;;;5.65;44.95
20009;BME280;10165;42.662;23.260;2023-03-13T08:06:41;94595.25;;;5.35;44.10
20009;BME280;10165;42.662;23.260;2023-03-13T08:09:08;94594.50;;;4.71;46.05
20009;BME280;10165;42.662;23.260;2023-03-13T08:11:37;94600.28;;;5.22;45.14
20009;BME280;10165;42.662;23.260;2023-03-13T08:14:06;94601.69;;;6.00;44.52
20009;BME280;10165;42.662;23.260;2023-03-13T08:16:33;94604.47;;;5.01;44.67
20009;BME280;10165;42.662;23.260;2023-03-13T08:19:02;94601.69;;;5.42;44.48
20009;BME280;10165;42.662;23.260;2023-03-13T08:21:33;94601.53;;;5.61;43.74
20009;BME280;10165;42.662;23.260;2023-03-13T08:24:02;94603.66;;;5.72;43.34
20009;BME280;10165;42.662;23.260;2023-03-13T08:26:33;94607.91;;;5.38;43.98
20009;BME280;10165;42.662;23.260;2023-03-13T08:29:02;94616.59;;;5.52;43.33
20009;BME280;10165;42.662;23.260;2023-03-13T08:31:35;94615.50;;;5.75;43.65
20009;BME280;10165;42.662;23.260;2023-03-13T08:34:02;94608.78;;;6.44;42.76
20009;BME280;10165;42.662;23.260;2023-03-13T08:36:34;94610.28;;;5.61;43.47
20009;BME280;10165;42.662;23.260;2023-03-13T08:39:20;94618.44;;;6.09;43.19
20009;BME280;10165;42.662;23.260;2023-03-13T08:41:47;94609.03;;;5.81;43.98
20009;BME280;10165;42.662;23.260;2023-03-13T08:44:15;94611.50;;;5.42;44.47
20009;BME280;10165;42.662;23.260;2023-03-13T08:46:43;94603.16;;;6.15;43.86
20009;BME280;10165;42.662;23.260;2023-03-13T08:49:10;94607.13;;;6.26;43.47
20009;BME280;10165;42.662;23.260;2023-03-13T08:51:37;94603.03;;;6.51;42.74
20009;BME280;10165;42.662;23.260;2023-03-13T08:54:05;94602.72;;;6.44;42.74
20009;BME280;10165;42.662;23.260;2023-03-13T08:56:32;94604.50;;;6.65;42.76
20009;BME280;10165;42.662;23.260;2023-03-13T08:59:02;94597.56;;;6.95;42.18
20009;BME280;10165;42.662;23.260;2023-03-13T09:01:31;94593.97;;;7.00;42.31
20009;BME280;10165;42.662;23.260;2023-03-13T09:03:59;94604.56;;;6.12;43.64
20009;BME280;10165;42.662;23.260;2023-03-13T09:06:30;94597.66;;;6.34;43.13
20009;BME280;10165;42.662;23.260;2023-03-13T09:08:57;94593.38;;;6.55;42.55
20009;BME280;10165;42.662;23.260;2023-03-13T09:11:24;94599.81;;;7.19;41.30
20009;BME280;10165;42.662;23.260;2023-03-13T09:13:52;94609.81;;;6.65;42.56
20009;BME280;10165;42.662;23.260;2023-03-13T09:16:22;94598.28;;;6.79;42.22
20009;BME280;10165;42.662;23.260;2023-03-13T09:18:50;94589.75;;;6.99;41.96
20009;BME280;10165;42.662;23.260;2023-03-13T09:21:19;94589.28;;;6.09;44.32
20009;BME280;10165;42.662;23.260;2023-03-13T09:23:46;94582.25;;;6.13;44.46
20009;BME280;10165;42.662;23.260;2023-03-13T09:26:14;94588.06;;;6.55;43.21
20009;BME280;10165;42.662;23.260;2023-03-13T09:28:41;94585.97;;;6.74;42.07
20009;BME280;10165;42.662;23.260;2023-03-13T09:31:13;94587.00;;;7.30;41.79
20009;BME280;10165;42.662;23.260;2023-03-13T09:33:42;94598.84;;;7.06;41.50
20009;BME280;10165;42.662;23.260;2023-03-13T09:36:09;94592.06;;;6.83;42.48
20009;BME280;10165;42.662;23.260;2023-03-13T09:38:37;94595.91;;;7.34;41.71
20009;BME280;10165;42.662;23.260;2023-03-13T09:41:21;94589.34;;;7.83;41.38
20009;BME280;10165;42.662;23.260;2023-03-13T09:44:19;94593.25;;;7.68;40.74
20009;BME280;10165;42.662;23.260;2023-03-13T09:49:31;94578.56;;;7.28;41.73
20009;BME280;10165;42.662;23.260;2023-03-13T09:52:15;94563.38;;;7.97;41.33
20009;BME280;10165;42.662;23.260;2023-03-13T09:54:56;94574.66;;;7.77;41.24
20009;BME280;10165;42.662;23.260;2023-03-13T09:57:34;94568.78;;;8.17;40.63
20009;BME280;10165;42.662;23.260;2023-03-13T10:00:07;94572.63;;;7.65;41.55
20009;BME280;10165;42.662;23.260;2023-03-13T10:02:43;94573.88;;;7.85;40.82
20009;BME280;10165;42.662;23.260;2023-03-13T10:05:17;94570.06;;;7.94;41.48
20009;BME280;10165;42.662;23.260;2023-03-13T10:07:45;94574.28;;;8.04;40.91
20009;BME280;10165;42.662;23.260;2023-03-13T10:16:10;94550.34;;;8.04;39.58
20009;BME280;10165;42.662;23.260;2023-03-13T10:18:48;94539.69;;;8.12;39.88
20009;BME280;10165;42.662;23.260;2023-03-13T10:21:21;94533.06;;;7.63;41.92
20009;BME280;10165;42.662;23.260;2023-03-13T10:23:52;94534.94;;;7.63;41.67
20009;BME280;10165;42.662;23.260;2023-03-13T10:26:28;94540.88;;;7.26;42.20
20009;BME280;10165;42.662;23.260;2023-03-13T10:28:56;94517.81;;;7.98;41.29
20009;BME280;10165;42.662;23.260;2023-03-13T10:31:31;94526.09;;;8.52;39.91
20009;BME280;10165;42.662;23.260;2023-03-13T10:34:06;94529.16;;;7.61;41.54
20009;BME280;10165;42.662;23.260;2023-03-13T10:36:44;94515.50;;;7.80;41.49
20009;BME280;10165;42.662;23.260;2023-03-13T10:39:21;94513.53;;;8.61;40.48
20009;BME280;10165;42.662;23.260;2023-03-13T10:41:48;94513.25;;;8.54;39.95
20009;BME280;10165;42.662;23.260;2023-03-13T10:44:16;94504.53;;;8.45;41.31
20009;BME280;10165;42.662;23.260;2023-03-13T10:46:46;94507.34;;;8.40;40.41
20009;BME280;10165;42.662;23.260;2023-03-13T10:49:32;94496.22;;;8.76;39.88
20009;BME280;10165;42.662;23.260;2023-03-13T10:52:01;94490.41;;;8.53;40.56
20009;BME280;10165;42.662;23.260;2023-03-13T10:54:30;94490.38;;;8.82;39.80
20009;BME280;10165;42.662;23.260;2023-03-13T10:57:29;94503.19;;;9.09;39.78
20009;BME280;10165;42.662;23.260;2023-03-13T10:59:57;94498.28;;;8.41;40.33
20009;BME280;10165;42.662;23.260;2023-03-13T11:02:35;94491.06;;;9.00;39.57
20009;BME280;10165;42.662;23.260;2023-03-13T11:07:52;94478.53;;;9.54;38.57
20009;BME280;10165;42.662;23.260;2023-03-13T11:10:25;94475.34;;;9.40;38.30
20009;BME280;10165;42.662;23.260;2023-03-13T11:12:55;94465.16;;;9.75;38.21
20009;BME280;10165;42.662;23.260;2023-03-13T11:15:33;94478.31;;;9.05;39.29
20009;BME280;10165;42.662;23.260;2023-03-13T11:20:38;94462.78;;;8.87;39.21
20009;BME280;10165;42.662;23.260;2023-03-13T11:23:27;94466.16;;;9.17;39.36
20009;BME280;10165;42.662;23.260;2023-03-13T11:28:48;94450.81;;;9.34;39.39
20009;BME280;10165;42.662;23.260;2023-03-13T11:34:05;94444.63;;;9.99;37.01
20009;BME280;10165;42.662;23.260;2023-03-13T11:36:40;94436.63;;;9.87;37.71
20009;BME280;10165;42.662;23.260;2023-03-13T11:42:14;94424.72;;;9.97;37.47
20009;BME280;10165;42.662;23.260;2023-03-13T12:00:57;94409.94;;;9.87;37.71
20009;BME280;10165;42.662;23.260;2023-03-13T12:03:43;94392.53;;;10.78;36.55
20009;BME280;10165;42.662;23.260;2023-03-13T12:06:28;94392.25;;;9.83;37.58
20009;BME280;10165;42.662;23.260;2023-03-13T12:11:41;94384.59;;;10.05;37.35
20009;BME280;10165;42.662;23.260;2023-03-13T12:14:20;94372.59;;;10.36;36.93
20009;BME280;10165;42.662;23.260;2023-03-13T12:16:55;94364.41;;;10.69;36.41
20009;BME280;10165;42.662;23.260;2023-03-13T12:19:33;94366.69;;;9.94;37.15
20009;BME280;10165;42.662;23.260;2023-03-13T12:22:14;94363.53;;;10.65;37.55
20009;BME280;10165;42.662;23.260;2023-03-13T12:24:51;94375.22;;;10.60;36.54
20009;BME280;10165;42.662;23.260;2023-03-13T12:27:26;94363.75;;;10.72;36.82
20009;BME280;10165;42.662;23.260;2023-03-13T12:35:26;94368.63;;;10.70;36.46
20009;BME280;10165;42.662;23.260;2023-03-13T12:41:17;94352.47;;;11.34;36.20
20009;BME280;10165;42.662;23.260;2023-03-13T12:43:51;94363.38;;;11.13;35.96
20009;BME280;10165;42.662;23.260;2023-03-13T12:49:15;94360.84;;;11.48;36.16
20009;BME280;10165;42.662;23.260;2023-03-13T12:52:11;94357.34;;;11.16;36.08
20009;BME280;10165;42.662;23.260;2023-03-13T12:54:51;94359.44;;;11.38;35.79
20009;BME280;10165;42.662;23.260;2023-03-13T13:00:15;94361.25;;;10.79;36.00
20009;BME280;10165;42.662;23.260;2023-03-13T13:02:43;94363.75;;;11.27;35.30
20009;BME280;10165;42.662;23.260;2023-03-13T13:05:18;94367.38;;;11.35;36.42
20009;BME280;10165;42.662;23.260;2023-03-13T13:07:54;94367.91;;;11.40;35.30
20009;BME280;10165;42.662;23.260;2023-03-13T13:10:25;94365.19;;;11.68;35.50
20009;BME280;10165;42.662;23.260;2023-03-13T13:15:46;94359.41;;;11.66;34.25
20009;BME280;10165;42.662;23.260;2023-03-13T13:18:27;94358.31;;;11.83;33.80
20009;BME280;10165;42.662;23.260;2023-03-13T13:23:35;94351.59;;;11.89;33.66
20009;BME280;10165;42.662;23.260;2023-03-13T13:45:02;94323.88;;;11.81;33.94
20009;BME280;10165;42.662;23.260;2023-03-13T13:47:30;94332.09;;;11.29;34.13
20009;BME280;10165;42.662;23.260;2023-03-13T13:49:59;94330.91;;;11.58;33.84
20009;BME280;10165;42.662;23.260;2023-03-13T13:54:59;94336.44;;;11.65;33.80
20009;BME280;10165;42.662;23.260;2023-03-13T13:57:28;94325.13;;;11.40;34.79
20009;BME280;10165;42.662;23.260;2023-03-13T14:00:22;94326.13;;;11.79;33.81
20009;BME280;10165;42.662;23.260;2023-03-13T14:02:55;94323.75;;;12.25;33.21
20009;BME280;10165;42.662;23.260;2023-03-13T14:05:27;94328.16;;;11.55;33.80
20009;BME280;10165;42.662;23.260;2023-03-13T14:11:42;94322.03;;;12.17;32.97
20009;BME280;10165;42.662;23.260;2023-03-13T14:14:19;94320.97;;;12.37;32.46
20009;BME280;10165;42.662;23.260;2023-03-13T14:16:55;94324.41;;;12.37;32.53
20009;BME280;10165;42.662;23.260;2023-03-13T14:22:06;94324.72;;;12.52;32.82
20009;BME280;10165;42.662;23.260;2023-03-13T14:24:33;94320.94;;;12.02;33.13
20009;BME280;10165;42.662;23.260;2023-03-13T14:27:00;94315.63;;;12.21;32.85
20009;BME280;10165;42.662;23.260;2023-03-13T14:29:27;94314.38;;;12.34;33.21
20009;BME280;10165;42.662;23.260;2023-03-13T14:31:56;94310.59;;;12.20;33.35
20009;BME280;10165;42.662;23.260;2023-03-13T14:34:25;94316.19;;;11.95;33.14
20009;BME280;10165;42.662;23.260;2023-03-13T14:36:57;94319.81;;;11.87;32.84
20009;BME280;10165;42.662;23.260;2023-03-13T14:39:44;94320.38;;;11.65;33.21
20009;BME280;10165;42.662;23.260;2023-03-13T14:42:13;94321.50;;;11.48;33.73
20009;BME280;10165;42.662;23.260;2023-03-13T14:44:41;94314.53;;;12.07;33.01
20009;BME280;10165;42.662;23.260;2023-03-13T14:47:24;94314.56;;;12.41;32.54
20009;BME280;10165;42.662;23.260;2023-03-13T14:49:59;94309.03;;;12.54;32.35
20009;BME280;10165;42.662;23.260;2023-03-13T14:52:29;94316.59;;;12.48;32.21
20009;BME280;10165;42.662;23.260;2023-03-13T14:54:58;94315.16;;;12.35;32.24
20009;BME280;10165;42.662;23.260;2023-03-13T14:57:30;94312.13;;;12.36;32.30